Rio del Mar, California
Current Conditions -  °F | °C
As of 8:53 AM on Thursday 30 Oct 2014 (Local Time) from KWVI Reporting Station
Clear Clear  
Wind Chill: 61°   Ceiling: Unl
Heat Index: 61°   Visibility: 10mi
Dew Point: 50°   Wind: 0mph
Humidity: 67%   Direction: NA
Pressure: 29.97"   Gusts: NA
Location:  37.0137°N, 121.877°W
Report Text: KWVI 301553Z AUTO 00000KT 10SM CLR 16/10 A2997 RMK AO2 SLP150 T01610100
Loading
Personal Weather Stations






























Interactive Weather Map
Tropical Storm Tracking
New forecast layout! Learn more

10-Day Weather Forecast

Advertisements
Track Severe Weather on mobile